Airfield :
LOGIN :

Register | Disclaimer

   EN    FR    IT 

 










Legend :    VFR   Marginal VFR   IFR   Intensive IFR   Very Intensive IFR
Visi :
Ceiling :
>= 8 km
>= 3000ft
5 to 8 km
1000 to 3000 ft
1500m to 5 km
500 to 1000 ft
800 to 1500m
200 to 500 ft
< 800m
< 200 ft
Symbols :   Thunderstorms  Fog  Heavy snow  Heavy precipitations  Wind > 20 kt
SIGMETs :     Misc.  Thunderstorms  Icing  Turbulence  Mountain Waves  Volcanic Ashes







- Airport Elevation : 6 ft
- IATA code : PSA


LIRP - Galileo Galilei Pisa

CURRENT METAR :
  • 141715Z 33002KT 9999 FEW025CB BKN060 26/18 Q1011 BECMG 5000 TSRA SCT020CB

EXPIRED METARs :
  • 141645Z 01004KT 9999 FEW025CB BKN060 26/19 Q1011 BECMG 5000 TSRA SCT020CB
  • 141615Z 32004KT 9999 FEW025CB BKN060 26/19 Q1011 BECMG 5000 TSRA SCT020CB
  • 141545Z 29006KT 9999 FEW025TCU BKN060 26/19 Q1011 BECMG 5000 TSRA SCT020CB
  • 141515Z 30006KT 9999 FEW050 BKN070 26/18 Q1011 NOSIG
  • 141445Z 27004KT 9999 FEW050 BKN070 27/18 Q1011 NOSIG

TAF TAF LIRP
Valid from the 14 at 12:00 until the 15 at 12:00 UTC


141100Z 1412/1512 12005KT 9999 SCT020 SCT050
PROB40
TEMPO 1412/1416 4000 SHRA FEW020CB BKN040
BECMG 1419/1421 07010KT 9999 SCT060
No reported NOTAMs for that airfield.
2 SIGMETs reported for the Milano FIR (LIMM) :
 
Embedded thunderstorms
LIMM SIGMET 4 VALID 141410/141810 LIIP
LIMM MILANO FIR EMBD TS FCST SE OF LINE N4405 E00658 - N4644 E01247 TOP FL420 STNR NC=
Severe turbulence
LIMM SIGMET 3 VALID 141400/141800 LIIP
LIMM MILANO FIR SEV TURB FCST W OF LINE N4658 E01038 - N4327 E01024 FL240/380 MOV E NC=



MET'MAP, your aeronautical weather chart ! - Copyright ORBIFLY December 2007 - Disclaimer

ORBIFLY MET'MAP TEAM :

Programming & Development : Alexandra Zaïnal
Concept & Development : Baudouin d'Aumeries
Co-Development & Prog : Marc-Olivier Méhu
Technical & hardware support : Manuel Goepfert

Contact : metmap@orbifly.com




SOURCES & CREDITS :

   NOAA